Time;durP1;ratioP1;P1;durP2;ratioP2;P2;SDS_P1;SDS_P2;PMS_P1;PMS_P2;Temp;Humidity;BMP_temperature;BMP_pressure;BME280_temperature;BME280_humidity;BME280_pressure;Samples;Min_cycle;Max_cycle;Signal;HPM_P1;HPM_P2
2023/07/05 00:01:16;;;;;;;1521.00;188.65;;;19.30;99.90;;;;;;5017274;28;20021;-51
2023/07/05 00:03:42;;;;;;;249.65;31.05;;;19.50;99.90;;;;;;5034883;28;20125;-50
2023/07/05 00:06:08;;;;;;;496.02;70.10;;;19.80;99.90;;;;;;5034150;28;20117;-51
2023/07/05 00:08:35;;;;;;;124.93;18.65;;;20.10;99.90;;;;;;5033962;28;20025;-50
2023/07/05 00:11:07;;;;;;;25.20;8.13;;;20.10;99.90;;;;;;5033576;28;20112;-51
2023/07/05 00:13:33;;;;;;;12.32;6.07;;;20.10;99.90;;;;;;5033981;28;20034;-48
2023/07/05 00:15:59;;;;;;;70.32;13.70;;;20.30;99.90;;;;;;5034186;28;20042;-49
2023/07/05 00:18:26;;;;;;;8.25;5.57;;;20.30;99.90;;;;;;5033390;28;20025;-52
2023/07/05 00:20:53;;;;;;;114.28;17.45;;;20.40;99.90;;;;;;5036666;28;20435;-50
2023/07/05 00:23:18;;;;;;;22.77;8.13;;;20.20;99.90;;;;;;5034288;28;20116;-49
2023/07/05 00:25:44;;;;;;;7.20;4.57;;;20.20;99.90;;;;;;5034525;28;20057;-51
2023/07/05 00:28:10;;;;;;;26.92;7.55;;;20.20;99.90;;;;;;5016068;28;20084;-50
2023/07/05 00:30:35;;;;;;;7.05;4.80;;;20.20;99.90;;;;;;5034649;28;20108;-53
2023/07/05 00:33:01;;;;;;;6.28;4.70;;;20.10;99.90;;;;;;5033127;28;20065;-55
2023/07/05 00:35:26;;;;;;;18.73;7.50;;;20.30;99.90;;;;;;5032808;28;20116;-49
2023/07/05 00:37:52;;;;;;;55.35;10.93;;;20.30;99.90;;;;;;5034520;28;20022;-51
2023/07/05 00:40:19;;;;;;;9.40;8.23;;;20.40;99.90;;;;;;5034630;28;20528;-51
2023/07/05 00:42:44;;;;;;;26.17;8.65;;;20.40;99.90;;;;;;5034255;28;20053;-50
2023/07/05 00:45:10;;;;;;;16.13;10.05;;;20.50;99.90;;;;;;5033454;28;20073;-52
2023/07/05 00:47:38;;;;;;;26.08;10.25;;;20.80;99.90;;;;;;5033515;28;20026;-54
2023/07/05 00:50:19;;;;;;;13.07;10.43;;;20.70;99.90;;;;;;5033658;28;20022;-55
2023/07/05 00:52:45;;;;;;;21.95;14.35;;;20.90;99.90;;;;;;5033874;28;20029;-55
2023/07/05 00:55:12;;;;;;;21.73;16.45;;;20.90;99.90;;;;;;5033495;28;20048;-54
2023/07/05 00:57:39;;;;;;;23.60;15.00;;;21.00;99.90;;;;;;5033716;28;20032;-51
2023/07/05 01:00:11;;;;;;;23.80;16.00;;;21.00;99.90;;;;;;5033532;28;20029;-51
2023/07/05 01:02:40;;;;;;;15.93;12.43;;;21.20;99.90;;;;;;5033436;28;20049;-50
2023/07/05 01:05:07;;;;;;;16.85;13.48;;;20.90;99.90;;;;;;5033079;28;20075;-51
2023/07/05 01:07:34;;;;;;;20.00;14.52;;;20.90;99.90;;;;;;5034165;28;20031;-55
2023/07/05 01:10:00;;;;;;;20.95;14.85;;;21.10;99.90;;;;;;5032646;28;20026;-48
2023/07/05 01:12:28;;;;;;;22.95;14.75;;;21.20;99.90;;;;;;5033369;28;20049;-49
2023/07/05 01:15:17;;;;;;;22.10;15.80;;;21.20;99.90;;;;;;5031373;28;20022;-50
2023/07/05 01:18:06;;;;;;;19.65;15.07;;;21.40;99.90;;;;;;5016422;28;20049;-51
2023/07/05 01:20:51;;;;;;;18.05;15.43;;;21.30;99.90;;;;;;5023984;28;20491;-51
2023/07/05 01:23:38;;;;;;;20.40;14.90;;;21.30;99.90;;;;;;5031805;28;20038;-52
2023/07/05 01:26:19;;;;;;;17.20;13.90;;;21.30;99.90;;;;;;5032452;28;20037;-49
2023/07/05 01:29:00;;;;;;;21.17;15.63;;;21.20;99.90;;;;;;5029665;28;20029;-50
2023/07/05 01:31:45;;;;;;;20.70;15.52;;;21.30;99.90;;;;;;5029713;28;20033;-51
2023/07/05 01:34:30;;;;;;;;;;;21.30;99.90;;;;;;5031273;28;20514;-53
2023/07/05 01:36:57;;;;;;;13.70;11.95;;;21.10;99.90;;;;;;5030659;28;20406;-49
2023/07/05 01:39:22;;;;;;;20.00;14.38;;;21.30;99.90;;;;;;5032037;28;20033;-53
2023/07/05 01:41:48;;;;;;;18.42;15.00;;;21.40;99.90;;;;;;5032341;28;20536;-49
2023/07/05 01:44:16;;;;;;;22.10;14.90;;;21.40;99.90;;;;;;5032992;28;20052;-49
2023/07/05 01:46:54;;;;;;;15.63;12.70;;;21.40;99.90;;;;;;5032530;28;20483;-51
2023/07/05 01:49:26;;;;;;;14.18;12.27;;;21.40;99.90;;;;;;5013983;28;20041;-51
2023/07/05 01:51:59;;;;;;;17.38;13.52;;;21.40;99.90;;;;;;5031095;28;20048;-54
2023/07/05 01:54:43;;;;;;;15.43;12.77;;;21.40;99.90;;;;;;5030493;28;20033;-54
2023/07/05 01:57:26;;;;;;;19.52;15.55;;;21.30;99.90;;;;;;5030969;28;20029;-49
2023/07/05 02:00:15;;;;;;;18.10;14.20;;;21.30;99.90;;;;;;5030964;28;20061;-50
2023/07/05 02:02:51;;;;;;;21.55;17.38;;;21.40;99.90;;;;;;5028182;28;20045;-48
2023/07/05 02:05:18;;;;;;;18.02;14.70;;;21.50;99.90;;;;;;5028417;28;20029;-52
2023/07/05 02:07:44;;;;;;;20.70;15.75;;;21.70;99.90;;;;;;5029079;28;20037;-50
2023/07/05 02:10:11;;;;;;;21.05;14.38;;;21.70;99.90;;;;;;5026705;28;20053;-50
2023/07/05 02:12:36;;;;;;;17.05;13.48;;;21.50;99.90;;;;;;5029515;28;20123;-54
2023/07/05 02:15:03;;;;;;;17.60;14.65;;;21.40;99.90;;;;;;5029941;28;20645;-52
2023/07/05 02:17:29;;;;;;;18.85;14.85;;;21.50;99.90;;;;;;5030347;28;20033;-50
2023/07/05 02:19:55;;;;;;;18.17;15.98;;;21.60;99.90;;;;;;5030680;28;20475;-52
2023/07/05 02:22:20;;;;;;;20.58;16.98;;;21.60;99.90;;;;;;5026450;28;20067;-51
2023/07/05 02:24:50;;;;;;;23.70;17.20;;;21.50;99.90;;;;;;5029338;28;20035;-48
2023/07/05 02:27:16;;;;;;;20.83;17.67;;;21.50;99.90;;;;;;5029804;28;20414;-47
2023/07/05 02:29:42;;;;;;;22.13;17.77;;;21.60;99.90;;;;;;5029447;28;20029;-49
2023/07/05 02:32:08;;;;;;;20.58;16.92;;;21.50;99.90;;;;;;5030438;28;20120;-48
2023/07/05 02:34:40;;;;;;;24.38;17.05;;;21.60;99.90;;;;;;5029588;28;20017;-48
2023/07/05 02:37:10;;;;;;;18.73;16.73;;;21.60;99.90;;;;;;5028957;28;20025;-51
2023/07/05 02:39:36;;;;;;;18.40;14.85;;;21.60;99.90;;;;;;5029092;28;20064;-48
2023/07/05 02:42:02;;;;;;;20.05;15.73;;;21.50;99.90;;;;;;5029832;28;20068;-49
2023/07/05 02:44:28;;;;;;;20.65;16.25;;;21.50;99.90;;;;;;5012648;28;20087;-54
2023/07/05 02:46:54;;;;;;;15.45;12.75;;;21.50;99.90;;;;;;5029003;28;20477;-53
2023/07/05 02:49:19;;;;;;;15.35;11.95;;;21.40;99.90;;;;;;5026618;28;20472;-48
2023/07/05 02:51:45;;;;;;;12.88;10.50;;;21.30;99.90;;;;;;5029525;28;20030;-52
2023/07/05 02:54:11;;;;;;;10.60;9.50;;;21.40;99.90;;;;;;5027800;28;20506;-48
2023/07/05 02:56:37;;;;;;;11.50;9.95;;;21.40;99.90;;;;;;5030242;28;20029;-53
2023/07/05 02:59:02;;;;;;;12.15;9.90;;;21.50;99.90;;;;;;5030013;28;20025;-48
2023/07/05 03:01:28;;;;;;;12.73;10.57;;;21.40;99.90;;;;;;5029168;28;20037;-52
2023/07/05 03:03:54;;;;;;;11.70;10.20;;;21.40;99.90;;;;;;5029484;28;20080;-53
2023/07/05 03:06:19;;;;;;;13.02;10.13;;;21.30;99.90;;;;;;5028677;28;20026;-51
2023/07/05 03:08:45;;;;;;;13.90;10.15;;;21.40;99.90;;;;;;5029277;28;20116;-50
2023/07/05 03:11:11;;;;;;;12.82;11.52;;;21.30;99.90;;;;;;5029073;28;20045;-52
2023/07/05 03:13:36;;;;;;;10.13;8.25;;;21.30;99.90;;;;;;5029435;28;20051;-54
2023/07/05 03:16:02;;;;;;;11.38;10.00;;;21.20;99.90;;;;;;5029467;28;20064;-51
2023/07/05 03:18:29;;;;;;;11.38;8.57;;;21.30;99.90;;;;;;5030218;28;20116;-49
2023/07/05 03:20:55;;;;;;;12.80;9.70;;;21.20;99.90;;;;;;5028499;28;20017;-49
2023/07/05 03:23:21;;;;;;;11.63;8.93;;;21.20;99.90;;;;;;5028483;28;20056;-48
2023/07/05 03:25:58;;;;;;;8.55;7.13;;;21.30;99.90;;;;;;5028973;28;20071;-49
2023/07/05 03:28:26;;;;;;;9.88;7.53;;;21.30;99.90;;;;;;5027303;28;20053;-51
2023/07/05 03:30:58;;;;;;;7.65;6.40;;;21.30;99.90;;;;;;5010188;28;20035;-54
2023/07/05 03:33:24;;;;;;;9.07;6.75;;;21.20;99.90;;;;;;5029156;28;20077;-50
2023/07/05 03:36:04;;;;;;;6.68;5.57;;;21.10;99.90;;;;;;5029608;28;20049;-51
2023/07/05 03:38:30;;;;;;;7.22;5.60;;;21.00;99.90;;;;;;5032653;28;20033;-49
2023/07/05 03:41:05;;;;;;;5.50;4.70;;;21.10;99.90;;;;;;5031787;28;20033;-51
2023/07/05 03:43:37;;;;;;;4.63;3.67;;;21.00;99.90;;;;;;5034330;28;20033;-52
2023/07/05 03:46:04;;;;;;;6.22;4.70;;;21.00;99.90;;;;;;5031588;28;20033;-50
2023/07/05 03:48:33;;;;;;;5.32;4.35;;;21.00;99.90;;;;;;5032998;28;20040;-48
2023/07/05 03:50:59;;;;;;;5.20;3.50;;;20.90;99.90;;;;;;5031500;28;20026;-50
2023/07/05 03:53:25;;;;;;;4.82;4.30;;;20.80;99.90;;;;;;5032506;28;20038;-52
2023/07/05 03:55:51;;;;;;;4.97;4.03;;;21.00;99.90;;;;;;5014513;28;20063;-48
2023/07/05 03:58:18;;;;;;;3.40;3.10;;;21.00;99.90;;;;;;5027904;28;20022;-49
2023/07/05 04:00:44;;;;;;;4.40;2.90;;;21.00;99.90;;;;;;5031857;28;20030;-52
2023/07/05 04:03:10;;;;;;;2.58;2.38;;;21.00;99.90;;;;;;5032373;28;20049;-51
2023/07/05 04:05:35;;;;;;;4.32;3.25;;;20.90;99.90;;;;;;5031583;28;20029;-49
2023/07/05 04:08:01;;;;;;;3.90;2.72;;;20.90;99.90;;;;;;5032205;28;20026;-49
2023/07/05 04:10:27;;;;;;;5.20;2.58;;;20.90;99.90;;;;;;5031318;28;20090;-51
2023/07/05 04:12:52;;;;;;;2.95;2.63;;;20.90;99.90;;;;;;5031246;28;20745;-52
2023/07/05 04:15:18;;;;;;;4.80;2.70;;;20.80;99.90;;;;;;5032280;28;20029;-48
2023/07/05 04:17:44;;;;;;;3.22;2.50;;;20.80;99.90;;;;;;5015016;28;20068;-50
2023/07/05 04:20:10;;;;;;;5.28;2.28;;;20.90;99.90;;;;;;5032323;28;20054;-50
2023/07/05 04:22:39;;;;;;;4.00;2.38;;;20.80;99.90;;;;;;5031024;28;20021;-52
2023/07/05 04:25:06;;;;;;;2.65;2.45;;;20.80;99.90;;;;;;5031415;28;20573;-51
2023/07/05 04:27:32;;;;;;;2.50;2.28;;;20.90;99.90;;;;;;5031039;28;20044;-52
2023/07/05 04:29:57;;;;;;;2.90;2.33;;;20.90;99.90;;;;;;5026043;28;20470;-52
2023/07/05 04:32:23;;;;;;;4.30;2.00;;;20.80;99.90;;;;;;5032766;28;20063;-53
2023/07/05 04:34:49;;;;;;;4.60;2.45;;;20.70;99.90;;;;;;5032791;28;20600;-48
2023/07/05 04:37:14;;;;;;;4.40;2.40;;;20.80;99.90;;;;;;5032112;28;20061;-48
2023/07/05 04:39:40;;;;;;;2.70;2.35;;;20.80;99.90;;;;;;5031723;28;20536;-48
2023/07/05 04:42:06;;;;;;;4.63;2.47;;;20.80;99.90;;;;;;5032065;28;20037;-48
2023/07/05 04:44:31;;;;;;;2.88;2.33;;;20.70;99.90;;;;;;5030752;28;20049;-49
2023/07/05 04:46:57;;;;;;;4.90;2.33;;;20.70;99.90;;;;;;5031801;28;20474;-54
2023/07/05 04:49:23;;;;;;;3.10;1.90;;;20.70;99.90;;;;;;5031109;28;20025;-49
2023/07/05 04:51:48;;;;;;;3.40;1.80;;;20.60;99.90;;;;;;5032933;28;20041;-53
2023/07/05 04:54:16;;;;;;;2.83;1.90;;;20.50;99.90;;;;;;5031045;28;20044;-49
2023/07/05 04:56:41;;;;;;;5.32;1.83;;;20.60;99.90;;;;;;5031979;28;20033;-50
2023/07/05 04:59:07;;;;;;;4.13;2.40;;;20.60;99.90;;;;;;5035831;28;20040;-50
2023/07/05 05:01:33;;;;;;;5.43;2.25;;;20.60;99.90;;;;;;5031883;28;20026;-50
2023/07/05 05:03:59;;;;;;;3.13;2.80;;;20.70;99.90;;;;;;5031982;28;20063;-50
2023/07/05 05:06:25;;;;;;;3.97;2.60;;;20.80;99.90;;;;;;5032425;28;20039;-54
2023/07/05 05:08:50;;;;;;;5.00;2.72;;;20.80;99.90;;;;;;5032605;28;20018;-55
2023/07/05 05:11:16;;;;;;;2.85;2.35;;;21.00;99.90;;;;;;5034860;28;20033;-55
2023/07/05 05:13:42;;;;;;;3.15;2.08;;;21.00;99.90;;;;;;5031185;28;20038;-55
2023/07/05 05:20:08;;;;;;;3.03;2.53;;;21.10;99.90;;;;;;4987289;28;20447;-53
2023/07/05 05:22:34;;;;;;;5.60;2.80;;;21.20;99.90;;;;;;4975799;28;20477;-52
2023/07/05 05:25:00;;;;;;;4.75;2.90;;;21.30;99.90;;;;;;4973261;28;20034;-51
2023/07/05 05:27:25;;;;;;;5.60;3.10;;;21.40;99.90;;;;;;4974478;28;20035;-49
2023/07/05 05:29:51;;;;;;;3.50;2.22;;;21.80;1.00;;;;;;4968698;28;20160;-49
2023/07/05 10:58:49;;;;;;;4.80;4.13;;;27.70;1.00;;;;;;5066277;28;20890;-55
2023/07/05 11:01:29;;;;;;;4.55;4.07;;;27.80;1.00;;;;;;5044831;28;20103;-53
2023/07/05 11:04:05;;;;;;;7.03;4.45;;;27.90;1.00;;;;;;5049426;28;20394;-53
2023/07/05 11:06:36;;;;;;;8.35;5.75;;;28.00;1.00;;;;;;5049529;28;20028;-57
2023/07/05 11:09:03;;;;;;;5.55;4.22;;;28.30;1.00;;;;;;5049446;28;20398;-52
2023/07/05 11:11:37;;;;;;;4.70;4.13;;;28.60;1.00;;;;;;5048792;28;20084;-54
2023/07/05 11:14:03;;;;;;;8.00;4.88;;;29.10;1.00;;;;;;5044811;28;20025;-54
2023/07/05 11:16:32;;;;;;;6.00;4.53;;;29.20;1.00;;;;;;5047426;28;20387;-51
2023/07/05 11:19:04;;;;;;;5.20;4.63;;;29.30;1.00;;;;;;5041240;28;20030;-52
2023/07/05 11:21:38;;;;;;;6.00;3.88;;;29.30;99.90;;;;;;5038182;28;20041;-53
2023/07/05 11:24:10;;;;;;;4.05;3.45;;;29.70;99.90;;;;;;5045260;28;20029;-53
2023/07/05 11:26:41;;;;;;;4.82;4.38;;;31.40;99.90;;;;;;5043741;28;20383;-55
2023/07/05 11:29:32;;;;;;;4.55;4.15;;;33.80;99.90;;;;;;5048948;28;20021;-56
2023/07/05 11:32:02;;;;;;;4.55;4.13;;;35.20;99.90;;;;;;5048741;28;20087;-54
2023/07/05 11:34:27;;;;;;;9.15;5.47;;;35.90;99.90;;;;;;5042161;28;20033;-56
2023/07/05 11:37:13;;;;;;;10.43;8.00;;;35.30;99.90;;;;;;5048328;28;20052;-56
2023/07/05 11:39:46;;;;;;;9.23;6.78;;;35.00;99.90;;;;;;5045249;28;20029;-56
2023/07/05 11:42:15;;;;;;;7.55;6.05;;;35.70;99.90;;;;;;5044769;28;20025;-56
2023/07/05 11:45:13;;;;;;;8.02;6.40;;;37.20;99.90;;;;;;5047733;28;20064;-57
2023/07/05 11:47:39;;;;;;;5.20;4.80;;;40.50;99.90;;;;;;5047602;28;20116;-56
2023/07/05 11:50:09;;;;;;;4.95;4.55;;;41.30;99.90;;;;;;5047690;28;20423;-57
2023/07/05 11:53:00;;;;;;;5.72;4.97;;;43.00;99.90;;;;;;5040112;28;20038;-56
2023/07/05 11:55:33;;;;;;;5.35;4.88;;;37.50;99.90;;;;;;5044861;28;20029;-57
2023/07/05 11:58:24;;;;;;;7.18;6.57;;;35.10;99.90;;;;;;5046382;28;20053;-56
2023/07/05 12:00:55;;;;;;;5.55;5.10;;;37.90;99.90;;;;;;5041495;28;20033;-56
2023/07/05 12:03:28;;;;;;;7.35;6.57;;;39.60;99.90;;;;;;5046362;28;20030;-56
2023/07/05 12:06:19;;;;;;;5.32;4.68;;;41.10;99.90;;;;;;5051609;28;20029;-55
2023/07/05 12:08:48;;;;;;;6.13;5.47;;;41.90;99.90;;;;;;5041635;28;20041;-56
2023/07/05 12:11:27;;;;;;;5.85;5.30;;;42.10;99.90;;;;;;5033233;28;20022;-56
2023/07/05 12:13:53;;;;;;;5.55;5.13;;;37.50;99.90;;;;;;5039665;28;20033;-55
2023/07/05 12:16:19;;;;;;;5.72;5.22;;;39.70;99.90;;;;;;5037579;28;20029;-57
2023/07/05 12:18:47;;;;;;;7.38;6.68;;;40.40;99.90;;;;;;5033467;28;20041;-55
2023/07/05 12:21:13;;;;;;;5.97;5.43;;;39.10;99.90;;;;;;5034762;28;20079;-57
2023/07/05 12:23:39;;;;;;;6.75;5.90;;;37.50;99.90;;;;;;5021716;28;20045;-57
2023/07/05 12:26:27;;;;;;;6.30;5.70;;;36.60;99.90;;;;;;5033144;28;20030;-56
2023/07/05 12:28:53;;;;;;;6.47;5.88;;;37.20;99.90;;;;;;5032509;28;20470;-57
2023/07/05 12:31:22;;;;;;;6.22;5.63;;;37.60;99.90;;;;;;5033533;28;20033;-57
2023/07/05 12:33:57;;;;;;;9.57;5.28;;;37.20;99.90;;;;;;5033201;28;20053;-57
2023/07/05 12:36:23;;;;;;;5.80;5.25;;;36.70;99.90;;;;;;5030925;28;20110;-55
2023/07/05 12:39:04;;;;;;;6.38;5.75;;;37.90;99.90;;;;;;5032464;28;20133;-56
2023/07/05 12:41:30;;;;;;;5.53;5.05;;;38.40;99.90;;;;;;5024517;28;20030;-56
2023/07/05 12:44:07;;;;;;;5.75;5.35;;;37.40;99.90;;;;;;5031501;28;20036;-55
2023/07/05 12:46:34;;;;;;;6.40;5.50;;;35.40;99.90;;;;;;5032735;28;20049;-56
2023/07/05 12:49:20;;;;;;;5.68;5.18;;;33.90;99.90;;;;;;5027846;28;20018;-54
2023/07/05 12:51:51;;;;;;;5.80;5.20;;;33.30;99.90;;;;;;5028358;28;20061;-55
2023/07/05 12:54:17;;;;;;;6.55;5.63;;;33.60;99.90;;;;;;5033970;28;20029;-54
2023/07/05 12:56:45;;;;;;;8.52;6.45;;;34.30;99.90;;;;;;5032307;28;21810;-57
2023/07/05 12:59:30;;;;;;;6.88;5.28;;;34.70;99.90;;;;;;5032128;28;20061;-54
2023/07/05 13:01:55;;;;;;;6.07;5.32;;;35.40;99.90;;;;;;5026596;28;20103;-55
2023/07/05 13:04:23;;;;;;;5.57;5.03;;;35.10;99.90;;;;;;5028190;28;20060;-56
2023/07/05 13:06:52;;;;;;;6.35;5.75;;;35.60;99.90;;;;;;5032020;28;20029;-56
2023/07/05 13:09:29;;;;;;;5.80;5.30;;;36.10;99.90;;;;;;5031533;28;20601;-53
2023/07/05 13:11:57;;;;;;;5.47;4.97;;;35.90;99.90;;;;;;5031026;28;20057;-56
2023/07/05 13:14:31;;;;;;;5.38;4.88;;;36.20;99.90;;;;;;5033511;28;20502;-56
2023/07/05 13:17:18;;;;;;;5.40;4.90;;;35.00;99.90;;;;;;5032434;28;20021;-56
2023/07/05 13:19:50;;;;;;;6.53;5.05;;;34.90;99.90;;;;;;5031496;28;20112;-55
2023/07/05 13:22:23;;;;;;;5.65;4.85;;;34.40;99.90;;;;;;5030407;28;20565;-54
2023/07/05 13:24:50;;;;;;;5.55;5.03;;;33.20;99.90;;;;;;5032621;28;20030;-54
2023/07/05 13:27:25;;;;;;;5.70;5.15;;;32.70;99.90;;;;;;5033362;28;20060;-56
2023/07/05 13:29:52;;;;;;;5.72;4.63;;;32.80;99.90;;;;;;5031331;28;20021;-56
2023/07/05 13:32:43;;;;;;;5.80;5.03;;;33.30;99.90;;;;;;5031209;28;20064;-56
2023/07/05 13:35:09;;;;;;;7.22;5.75;;;33.70;99.90;;;;;;5028900;28;20037;-55
2023/07/05 13:37:35;;;;;;;5.88;5.38;;;33.90;99.90;;;;;;5031410;28;20044;-56
2023/07/05 13:40:10;;;;;;;6.63;4.88;;;33.90;99.90;;;;;;5032080;28;20025;-53
2023/07/05 13:42:37;;;;;;;7.10;6.22;;;34.10;99.90;;;;;;5032506;28;20091;-56
2023/07/05 13:45:04;;;;;;;5.78;5.28;;;34.00;99.90;;;;;;5032197;28;20039;-56
2023/07/05 13:47:30;;;;;;;7.07;6.38;;;34.10;99.90;;;;;;5031620;28;20037;-54
2023/07/05 13:49:55;;;;;;;10.43;6.93;;;34.20;99.90;;;;;;5032175;28;20013;-55
2023/07/05 13:52:21;;;;;;;6.90;6.20;;;34.30;99.90;;;;;;5029170;28;20522;-55
2023/07/05 13:54:48;;;;;;;6.25;5.65;;;34.00;99.90;;;;;;5031559;28;20029;-55
2023/07/05 13:57:18;;;;;;;6.70;6.10;;;34.40;99.90;;;;;;5032904;28;20049;-54
2023/07/05 13:59:45;;;;;;;6.88;6.22;;;34.80;99.90;;;;;;5033177;28;20028;-56
2023/07/05 14:02:31;;;;;;;6.45;5.85;;;35.40;99.90;;;;;;5030223;28;20046;-56
2023/07/05 14:04:58;;;;;;;7.28;6.35;;;35.70;99.90;;;;;;5032805;28;20581;-55
2023/07/05 14:07:24;;;;;;;7.35;6.15;;;35.10;99.90;;;;;;5031239;28;20037;-57
2023/07/05 14:09:51;;;;;;;6.75;6.13;;;34.20;99.90;;;;;;5031222;28;20030;-55
2023/07/05 14:12:19;;;;;;;6.35;5.85;;;33.90;99.90;;;;;;5027834;28;20030;-56
2023/07/05 14:14:45;;;;;;;6.45;5.93;;;33.90;99.90;;;;;;5031793;28;20136;-55
2023/07/05 14:17:18;;;;;;;7.57;6.60;;;34.20;99.90;;;;;;5032541;28;20104;-55
2023/07/05 14:19:44;;;;;;;7.30;6.60;;;34.90;99.90;;;;;;5027515;28;20104;-56
2023/07/05 14:22:16;;;;;;;7.07;5.70;;;35.00;99.90;;;;;;5028257;28;20025;-56
2023/07/05 14:24:42;;;;;;;7.22;6.38;;;34.70;99.90;;;;;;5020307;28;20048;-55
2023/07/05 14:27:22;;;;;;;6.50;5.90;;;34.90;99.90;;;;;;5028073;28;20497;-53
2023/07/05 14:29:52;;;;;;;7.68;6.65;;;35.30;99.90;;;;;;5031884;28;20486;-57
2023/07/05 14:32:19;;;;;;;7.00;6.40;;;35.40;99.90;;;;;;5027430;28;20041;-56
2023/07/05 14:34:45;;;;;;;7.68;6.75;;;36.00;99.90;;;;;;5031512;28;20028;-54
2023/07/05 14:37:11;;;;;;;7.13;6.53;;;36.00;99.90;;;;;;5032319;28;20041;-54
2023/07/05 14:39:37;;;;;;;8.60;6.55;;;35.40;99.90;;;;;;5032201;28;20382;-56
2023/07/05 14:42:04;;;;;;;8.32;6.50;;;35.10;99.90;;;;;;5031245;28;20452;-56
2023/07/05 14:44:30;;;;;;;6.60;6.07;;;34.70;99.90;;;;;;5030485;28;20113;-56
2023/07/05 14:46:57;;;;;;;7.32;6.65;;;35.20;99.90;;;;;;5032261;28;20024;-55
2023/07/05 14:49:23;;;;;;;8.27;6.35;;;35.20;99.90;;;;;;5030097;28;20049;-55
2023/07/05 14:51:50;;;;;;;6.75;6.07;;;35.20;99.90;;;;;;5032065;28;20026;-57
2023/07/05 14:54:17;;;;;;;7.38;6.53;;;35.50;99.90;;;;;;5028984;28;20091;-57
2023/07/05 14:56:43;;;;;;;8.70;6.90;;;35.60;99.90;;;;;;5031753;28;20049;-57
2023/07/05 14:59:09;;;;;;;7.47;6.40;;;35.80;99.90;;;;;;5026511;28;20030;-55
2023/07/05 15:01:35;;;;;;;7.57;6.90;;;36.70;99.90;;;;;;5031277;28;20539;-55
2023/07/05 15:04:02;;;;;;;7.60;6.80;;;37.00;99.90;;;;;;5031935;28;20033;-55
2023/07/05 15:06:28;;;;;;;7.07;6.47;;;37.70;99.90;;;;;;5031033;28;20412;-57
2023/07/05 15:08:54;;;;;;;7.75;6.68;;;38.10;99.90;;;;;;5028740;28;20037;-56
2023/07/05 15:11:20;;;;;;;9.35;6.60;;;39.60;99.90;;;;;;5031927;28;20025;-55
2023/07/05 15:13:47;;;;;;;7.68;6.18;;;39.70;99.90;;;;;;5031642;28;20040;-57
2023/07/05 15:16:19;;;;;;;6.07;5.50;;;36.70;99.90;;;;;;5030297;28;20025;-57
2023/07/05 15:18:45;;;;;;;8.32;6.75;;;35.20;99.90;;;;;;5031795;28;20398;-55
2023/07/05 15:21:22;;;;;;;6.65;6.00;;;34.70;99.90;;;;;;5031819;28;20029;-58
2023/07/05 15:23:50;;;;;;;8.35;6.45;;;36.70;99.90;;;;;;5031788;28;20565;-57
2023/07/05 15:26:16;;;;;;;6.47;5.85;;;36.90;99.90;;;;;;5029770;28;20057;-57
2023/07/05 15:28:42;;;;;;;6.45;5.93;;;37.10;99.90;;;;;;5029979;28;20119;-57
2023/07/05 15:31:09;;;;;;;6.40;5.80;;;36.90;99.90;;;;;;5030765;28;20022;-59
2023/07/05 15:33:35;;;;;;;7.32;6.63;;;36.40;99.90;;;;;;5030609;28;20045;-56
2023/07/05 15:36:00;;;;;;;7.10;6.40;;;36.20;99.90;;;;;;5030076;28;20463;-56
2023/07/05 15:38:26;;;;;;;7.43;6.20;;;36.90;99.90;;;;;;5025790;28;20033;-57
2023/07/05 15:40:52;;;;;;;6.43;5.80;;;37.50;99.90;;;;;;5029372;28;20083;-58
2023/07/05 15:43:17;;;;;;;6.78;6.05;;;37.10;99.90;;;;;;5032428;28;20527;-58
2023/07/05 15:45:46;;;;;;;8.25;5.90;;;38.00;99.90;;;;;;5034930;28;20052;-56
2023/07/05 15:48:12;;;;;;;6.68;6.10;;;38.60;99.90;;;;;;5033272;28;20103;-56
2023/07/05 15:50:38;;;;;;;7.05;6.40;;;38.90;99.90;;;;;;5034366;28;20459;-56
2023/07/05 15:53:05;;;;;;;7.95;5.97;;;39.50;99.90;;;;;;5034289;28;20083;-57
2023/07/05 15:55:31;;;;;;;6.63;5.85;;;39.30;99.90;;;;;;5033288;28;20017;-58
2023/07/05 15:58:00;;;;;;;6.00;5.45;;;39.30;99.90;;;;;;5033967;28;20136;-58
2023/07/05 16:00:28;;;;;;;7.90;5.88;;;38.90;99.90;;;;;;5032176;28;20049;-57
2023/07/05 16:03:02;;;;;;;7.38;6.68;;;37.50;99.90;;;;;;5034058;28;20029;-57
2023/07/05 16:05:33;;;;;;;6.40;5.85;;;37.00;99.90;;;;;;5030478;28;20026;-57
2023/07/05 16:08:00;;;;;;;7.00;6.40;;;36.70;99.90;;;;;;5028441;28;20488;-57
2023/07/05 16:10:27;;;;;;;5.93;5.30;;;36.00;99.90;;;;;;5031653;28;20025;-57
2023/07/05 16:12:56;;;;;;;7.28;6.10;;;35.10;99.90;;;;;;5033027;28;20029;-57
2023/07/05 16:15:22;;;;;;;5.63;5.18;;;35.60;99.90;;;;;;5033021;28;20051;-57
2023/07/05 16:17:47;;;;;;;6.45;5.90;;;36.00;99.90;;;;;;5029847;28;20053;-55
2023/07/05 16:20:13;;;;;;;6.55;5.85;;;35.80;99.90;;;;;;5025347;28;20056;-57
2023/07/05 16:22:39;;;;;;;6.95;6.10;;;35.00;99.90;;;;;;5032066;28;20083;-57
2023/07/05 16:25:06;;;;;;;7.70;6.07;;;34.50;99.90;;;;;;5030532;28;20056;-57
2023/07/05 16:27:32;;;;;;;7.43;5.63;;;34.70;99.90;;;;;;5032122;28;20451;-50
2023/07/05 16:29:58;;;;;;;7.80;5.30;;;33.90;99.90;;;;;;5034563;28;20026;-48
2023/07/05 16:32:25;;;;;;;6.97;5.90;;;34.10;99.90;;;;;;5033204;28;20167;-50
2023/07/05 16:34:51;;;;;;;7.07;5.97;;;34.00;99.90;;;;;;5030431;28;20028;-51
2023/07/05 16:37:16;;;;;;;8.60;5.57;;;33.90;99.90;;;;;;5034493;28;20045;-48
2023/07/05 16:39:43;;;;;;;6.05;5.45;;;33.80;99.90;;;;;;5033864;28;20057;-50
2023/07/05 16:42:09;;;;;;;8.95;5.32;;;33.50;99.90;;;;;;5033745;28;20061;-50
2023/07/05 16:44:36;;;;;;;5.82;5.25;;;33.60;99.90;;;;;;5032374;28;20049;-53
2023/07/05 16:47:02;;;;;;;9.77;6.25;;;33.70;99.90;;;;;;5033806;28;20118;-55
2023/07/05 16:49:28;;;;;;;8.27;5.53;;;33.90;99.90;;;;;;5033274;28;20390;-56
2023/07/05 16:51:56;;;;;;;7.90;6.20;;;33.70;99.90;;;;;;5031382;28;20037;-49
2023/07/05 16:54:23;;;;;;;8.35;6.50;;;33.60;99.90;;;;;;5030991;28;20030;-52
2023/07/05 16:56:50;;;;;;;8.27;6.35;;;33.50;99.90;;;;;;5034518;28;20060;-55
2023/07/05 16:59:16;;;;;;;9.40;6.03;;;33.50;99.90;;;;;;5028728;28;20032;-54
2023/07/05 17:01:41;;;;;;;8.27;6.22;;;33.70;99.90;;;;;;5031517;28;20040;-55
2023/07/05 17:04:11;;;;;;;6.55;5.30;;;33.80;99.90;;;;;;5031792;28;20029;-52
2023/07/05 17:06:38;;;;;;;6.65;6.05;;;34.10;99.90;;;;;;5031389;28;20029;-54
2023/07/05 17:09:04;;;;;;;8.13;6.60;;;34.20;99.90;;;;;;5033757;28;20036;-49
2023/07/05 17:11:30;;;;;;;8.43;6.47;;;33.80;99.90;;;;;;5032297;28;20026;-50
2023/07/05 17:13:56;;;;;;;7.18;5.93;;;33.80;99.90;;;;;;5033905;28;20396;-51
2023/07/05 17:16:22;;;;;;;6.60;5.90;;;33.70;99.90;;;;;;5033917;28;20021;-51
2023/07/05 17:18:48;;;;;;;6.60;5.90;;;33.50;99.90;;;;;;5033893;28;20048;-49
2023/07/05 17:21:15;;;;;;;11.23;6.70;;;32.80;99.90;;;;;;5032962;28;20018;-51
2023/07/05 17:23:41;;;;;;;8.52;7.03;;;32.50;99.90;;;;;;5030545;28;20076;-51
2023/07/05 17:26:12;;;;;;;11.00;5.47;;;32.00;99.90;;;;;;5032506;28;20021;-48
2023/07/05 17:28:41;;;;;;;6.70;4.90;;;30.00;99.90;;;;;;5032833;28;20025;-49
2023/07/05 17:31:11;;;;;;;11.45;4.47;;;29.30;99.90;;;;;;5033304;28;20059;-51
2023/07/05 17:33:37;;;;;;;11.20;4.32;;;28.80;99.90;;;;;;5029550;28;20211;-51
2023/07/05 17:36:08;;;;;;;10.43;4.63;;;28.50;99.90;;;;;;5030876;28;20041;-51
2023/07/05 17:38:34;;;;;;;10.90;4.55;;;28.30;99.90;;;;;;5033182;28;20069;-53
2023/07/05 17:41:00;;;;;;;12.40;5.18;;;28.10;99.90;;;;;;5033519;28;20418;-55
2023/07/05 17:43:26;;;;;;;6.20;3.90;;;28.10;99.90;;;;;;5028702;28;20033;-55
2023/07/05 17:46:27;;;;;;;5.20;3.80;;;28.10;99.90;;;;;;5032075;28;20459;-49
2023/07/05 17:48:59;;;;;;;6.28;4.07;;;27.70;99.90;;;;;;5029050;28;20487;-50
2023/07/05 17:51:26;;;;;;;5.93;4.03;;;27.60;99.90;;;;;;5032729;28;20104;-53
2023/07/05 17:53:52;;;;;;;5.70;4.45;;;27.90;99.90;;;;;;5032441;28;20025;-53
2023/07/05 17:56:19;;;;;;;6.78;5.05;;;26.10;99.90;;;;;;5032019;28;20032;-49
2023/07/05 17:58:46;;;;;;;4.93;3.97;;;25.90;99.90;;;;;;5031601;28;20022;-51
2023/07/05 18:01:15;;;;;;;7.00;3.55;;;25.80;99.90;;;;;;5031610;28;20033;-53
2023/07/05 18:03:41;;;;;;;4.05;3.58;;;26.30;99.90;;;;;;5030491;28;20060;-50
2023/07/05 18:06:09;;;;;;;4.50;3.75;;;26.40;99.90;;;;;;5030443;28;20295;-50
2023/07/05 18:08:34;;;;;;;6.10;4.78;;;26.40;99.90;;;;;;5031457;28;20029;-55
2023/07/05 18:11:03;;;;;;;4.43;3.80;;;26.90;99.90;;;;;;5031431;28;20398;-50
2023/07/05 18:13:31;;;;;;;6.95;4.78;;;27.30;99.90;;;;;;5029462;28;20056;-54
2023/07/05 18:16:02;;;;;;;4.28;3.88;;;27.50;99.90;;;;;;5032326;28;20479;-56
2023/07/05 18:18:30;;;;;;;4.88;4.25;;;27.70;99.90;;;;;;5025020;28;20060;-53
2023/07/05 18:20:56;;;;;;;7.10;4.15;;;27.80;99.90;;;;;;5030332;28;20116;-53
2023/07/05 18:23:23;;;;;;;5.13;4.13;;;28.20;99.90;;;;;;5030773;28;20415;-48